Time;durP1;ratioP1;P1;durP2;ratioP2;P2;SDS_P1;SDS_P2;PMS_P1;PMS_P2;Temp;Humidity;BMP_temperature;BMP_pressure;BME280_temperature;BME280_humidity;BME280_pressure;Samples;Min_cycle;Max_cycle;Signal;HPM_P1;HPM_P2
2022/11/27 00:00:23;;;;;;;;;;;6.50;99.90;;;;;;5051811;28;19917;-78
2022/11/27 00:02:49;;;;;;;;;;;6.40;99.90;;;;;;5052394;28;19909;-78
2022/11/27 00:05:14;;;;;;;;;;;6.40;99.90;;;;;;5049417;28;19913;-79
2022/11/27 00:07:40;;;;;;;;;;;6.40;99.90;;;;;;5039614;28;19909;-78
2022/11/27 00:10:06;;;;;;;;;;;6.30;99.90;;;;;;5043182;28;19905;-77
2022/11/27 00:12:31;;;;;;;;;;;6.30;99.90;;;;;;5045805;28;19912;-78
2022/11/27 00:14:57;;;;;;;;;;;6.30;99.90;;;;;;5049508;28;19905;-79
2022/11/27 00:17:23;;;;;;;;;;;6.30;99.90;;;;;;5049622;28;20312;-81
2022/11/27 00:19:48;;;;;;;;;;;6.30;99.90;;;;;;5049545;28;19944;-77
2022/11/27 00:22:14;;;;;;;;;;;6.30;99.90;;;;;;5050341;28;20370;-78
2022/11/27 00:24:39;;;;;;;;;;;6.30;99.90;;;;;;5051942;28;20220;-76
2022/11/27 00:27:05;;;;;;;;;;;6.30;99.90;;;;;;5047832;28;20709;-75
2022/11/27 00:29:30;;;;;;;;;;;6.30;99.90;;;;;;5050310;28;20330;-75
2022/11/27 00:31:56;;;;;;;;;;;6.30;99.90;;;;;;5036676;28;19912;-74
2022/11/27 00:34:22;;;;;;;;;;;6.20;99.90;;;;;;5049022;28;19911;-80
2022/11/27 00:36:47;;;;;;;;;;;6.30;99.90;;;;;;5041313;28;19905;-75
2022/11/27 00:39:13;;;;;;;;;;;6.20;99.90;;;;;;5037355;28;19959;-76
2022/11/27 00:41:38;;;;;;;;;;;6.30;99.90;;;;;;5052189;28;19909;-75
2022/11/27 00:44:04;;;;;;;;;;;6.30;99.90;;;;;;5055173;28;19913;-79
2022/11/27 00:46:30;;;;;;;;;;;6.30;99.90;;;;;;5051149;28;19916;-78
2022/11/27 00:48:57;;;;;;;;;;;6.30;99.90;;;;;;5055089;28;19905;-78
2022/11/27 00:51:22;;;;;;;;;;;6.30;99.90;;;;;;5054506;28;19929;-76
2022/11/27 00:53:48;;;;;;;;;;;6.30;99.90;;;;;;5046249;28;19967;-76
2022/11/27 00:56:18;;;;;;;;;;;6.30;99.90;;;;;;5052033;28;19939;-78
2022/11/27 00:58:44;;;;;;;;;;;6.30;99.90;;;;;;5043691;28;20197;-78
2022/11/27 01:01:17;;;;;;;;;;;6.30;99.90;;;;;;5054522;28;19995;-78
2022/11/27 01:03:43;;;;;;;;;;;6.40;99.90;;;;;;5050496;28;20310;-78
2022/11/27 01:06:09;;;;;;;;;;;6.40;99.90;;;;;;5049280;28;19920;-79
2022/11/27 01:08:34;;;;;;;;;;;6.40;99.90;;;;;;5047149;28;19955;-78
2022/11/27 01:11:00;;;;;;;;;;;6.40;99.90;;;;;;5050841;28;20310;-74
2022/11/27 01:13:27;;;;;;;;;;;6.40;99.90;;;;;;5053376;28;19992;-79
2022/11/27 01:16:09;;;;;;;;;;;6.40;99.90;;;;;;5054280;28;19928;-80
2022/11/27 01:18:36;;;;;;;;;;;6.40;99.90;;;;;;5048385;28;19912;-72
2022/11/27 01:21:01;;;;;;;;;;;6.40;99.90;;;;;;5054542;28;20189;-81
2022/11/27 01:23:27;;;;;;;;;;;6.40;99.90;;;;;;5053319;28;19915;-76
2022/11/27 01:25:53;;;;;;;;;;;6.40;99.90;;;;;;5050183;28;19917;-71
2022/11/27 01:28:19;;;;;;;;;;;6.50;99.90;;;;;;5046243;28;19924;-78
2022/11/27 01:30:44;;;;;;;;;;;6.40;99.90;;;;;;5047819;28;20256;-80
2022/11/27 01:33:10;;;;;;;;;;;6.50;99.90;;;;;;5051119;28;19912;-80
2022/11/27 01:35:35;;;;;;;;;;;6.50;99.90;;;;;;5051423;28;19961;-74
2022/11/27 01:38:01;;;;;;;;;;;6.50;99.90;;;;;;5054307;28;20003;-80
2022/11/27 01:40:26;;;;;;;;;;;6.50;99.90;;;;;;5043537;28;19919;-77
2022/11/27 01:42:52;;;;;;;;;;;6.50;99.90;;;;;;5053253;28;19963;-79
2022/11/27 01:45:18;;;;;;;;;;;6.50;99.90;;;;;;5052756;28;19917;-74
2022/11/27 01:47:54;;;;;;;;;;;6.50;99.90;;;;;;5053158;28;19994;-77
2022/11/27 01:50:25;;;;;;;;;;;6.50;99.90;;;;;;5052985;28;19909;-80
2022/11/27 01:52:53;;;;;;;;;;;6.50;99.90;;;;;;5051355;28;20003;-78
2022/11/27 01:55:38;;;;;;;;;;;6.50;99.90;;;;;;5054933;28;19924;-78
2022/11/27 01:58:09;;;;;;;;;;;6.50;99.90;;;;;;5046412;28;20083;-81
2022/11/27 02:00:35;;;;;;;;;;;6.50;99.90;;;;;;5049866;28;20027;-77
2022/11/27 02:03:00;;;;;;;;;;;6.50;99.90;;;;;;5055645;28;19991;-78
2022/11/27 02:05:29;;;;;;;;;;;6.50;99.90;;;;;;5054988;28;19912;-78
2022/11/27 02:07:59;;;;;;;;;;;6.50;99.90;;;;;;5051140;28;19912;-73
2022/11/27 02:10:37;;;;;;;;;;;6.50;99.90;;;;;;5058009;28;20207;-81
2022/11/27 02:13:13;;;;;;;;;;;6.50;99.90;;;;;;5055002;28;20311;-80
2022/11/27 02:15:47;;;;;;;;;;;6.40;99.90;;;;;;5053373;28;20319;-74
2022/11/27 02:18:19;;;;;;;;;;;6.40;99.90;;;;;;5050409;28;20377;-79
2022/11/27 02:20:47;;;;;;;;;;;6.40;99.90;;;;;;5054408;28;19912;-75
2022/11/27 02:23:22;;;;;;;;;;;6.40;99.90;;;;;;5050592;28;19975;-76
2022/11/27 02:25:51;;;;;;;;;;;6.40;99.90;;;;;;5047473;28;20353;-79
2022/11/27 02:28:36;;;;;;;;;;;6.30;99.90;;;;;;5046479;28;20232;-79
2022/11/27 02:31:20;;;;;;;;;;;6.30;99.90;;;;;;5057149;28;20250;-77
2022/11/27 02:33:49;;;;;;;;;;;6.30;99.90;;;;;;5046486;28;19928;-75
2022/11/27 02:36:19;;;;;;;;;;;6.30;99.90;;;;;;5047503;28;19917;-79
2022/11/27 02:38:46;;;;;;;;;;;6.30;99.90;;;;;;5049396;28;20319;-78
2022/11/27 02:41:16;;;;;;;;;;;6.30;99.90;;;;;;5056365;28;19915;-76
2022/11/27 02:43:44;;;;;;;;;;;6.30;99.90;;;;;;5049903;28;19915;-77
2022/11/27 02:46:11;;;;;;;;;;;6.30;99.90;;;;;;5044675;28;19921;-78
2022/11/27 02:48:39;;;;;;;;;;;6.40;99.90;;;;;;5042713;28;19909;-74
2022/11/27 02:51:05;;;;;;;;;;;6.40;99.90;;;;;;5046762;28;19913;-76
2022/11/27 02:53:37;;;;;;;;;;;6.40;99.90;;;;;;5054387;28;20223;-79
2022/11/27 02:56:05;;;;;;;;;;;6.40;99.90;;;;;;5055702;28;20361;-74
2022/11/27 02:58:31;;;;;;;;;;;6.40;99.90;;;;;;5055133;28;20387;-74
2022/11/27 03:00:58;;;;;;;;;;;6.40;99.90;;;;;;5050867;28;19994;-73
2022/11/27 03:03:25;;;;;;;;;;;6.40;99.90;;;;;;5044106;28;19913;-78
2022/11/27 03:05:53;;;;;;;;;;;6.50;99.90;;;;;;5039988;28;19917;-80
2022/11/27 03:08:27;;;;;;;;;;;6.40;99.90;;;;;;5052700;28;20216;-74
2022/11/27 03:11:05;;;;;;;;;;;6.50;99.90;;;;;;5045369;28;19920;-78
2022/11/27 03:13:34;;;;;;;;;;;6.50;99.90;;;;;;5048632;28;20065;-75
2022/11/27 03:16:03;;;;;;;;;;;6.50;99.90;;;;;;5051271;28;19999;-83
2022/11/27 03:18:40;;;;;;;;;;;6.50;99.90;;;;;;5056865;28;19987;-84
2022/11/27 03:21:21;;;;;;;;;;;6.50;99.90;;;;;;5050352;28;19909;-74
2022/11/27 03:23:47;;;;;;;;;;;6.50;99.90;;;;;;5055610;28;19908;-76
2022/11/27 03:26:12;;;;;;;;;;;6.50;99.90;;;;;;5049640;28;19916;-75
2022/11/27 03:28:38;;;;;;;;;;;6.50;99.90;;;;;;5046809;28;20085;-75
2022/11/27 03:31:04;;;;;;;;;;;6.50;99.90;;;;;;5047953;28;19995;-76
2022/11/27 03:33:30;;;;;;;;;;;6.50;99.90;;;;;;5049139;28;20000;-81
2022/11/27 03:35:55;;;;;;;;;;;6.50;99.90;;;;;;5042927;28;19905;-76
2022/11/27 03:38:21;;;;;;;;;;;6.50;99.90;;;;;;5047024;28;19952;-75
2022/11/27 03:41:09;;;;;;;;;;;6.50;99.90;;;;;;5053256;28;19905;-81
2022/11/27 03:43:40;;;;;;;;;;;6.50;99.90;;;;;;5018981;28;19917;-76
2022/11/27 03:46:14;;;;;;;;;;;6.50;99.90;;;;;;5038340;28;19935;-80
2022/11/27 03:48:48;;;;;;;;;;;6.50;99.90;;;;;;5050723;28;19928;-80
2022/11/27 03:51:19;;;;;;;;;;;6.50;99.90;;;;;;5047368;28;20000;-75
2022/11/27 03:54:00;;;;;;;;;;;6.40;99.90;;;;;;5041713;28;19969;-76
2022/11/27 03:56:35;;;;;;;;;;;6.50;99.90;;;;;;5053633;28;19905;-74
2022/11/27 03:59:09;;;;;;;;;;;6.40;99.90;;;;;;5041071;28;19909;-78
2022/11/27 04:01:35;;;;;;;;;;;6.40;99.90;;;;;;5042196;28;19923;-80
2022/11/27 04:04:00;;;;;;;;;;;6.40;99.90;;;;;;5050453;28;19999;-78
2022/11/27 04:06:26;;;;;;;;;;;6.40;99.90;;;;;;5046415;28;19999;-75
2022/11/27 04:08:51;;;;;;;;;;;6.40;99.90;;;;;;5053796;28;19909;-79
2022/11/27 04:11:17;;;;;;;;;;;6.40;99.90;;;;;;5055782;28;20379;-78
2022/11/27 04:13:42;;;;;;;;;;;6.40;99.90;;;;;;5055613;28;19908;-79
2022/11/27 04:16:08;;;;;;;;;;;6.30;99.90;;;;;;5054260;28;19909;-80
2022/11/27 04:18:33;;;;;;;;;;;6.30;99.90;;;;;;5054258;28;19912;-81
2022/11/27 04:20:59;;;;;;;;;;;6.40;99.90;;;;;;5054515;28;19912;-82
2022/11/27 04:23:25;;;;;;;;;;;6.30;99.90;;;;;;5054384;28;19912;-77
2022/11/27 04:25:50;;;;;;;;;;;6.30;99.90;;;;;;5055326;28;19909;-78
2022/11/27 04:28:19;;;;;;;;;;;6.40;99.90;;;;;;5049053;28;20357;-76
2022/11/27 04:30:49;;;;;;;;;;;6.40;99.90;;;;;;5053895;28;20371;-76
2022/11/27 04:33:14;;;;;;;;;;;6.30;99.90;;;;;;5046914;28;19908;-80
2022/11/27 04:35:40;;;;;;;;;;;6.30;99.90;;;;;;5052796;28;19909;-75
2022/11/27 04:38:05;;;;;;;;;;;6.30;99.90;;;;;;5050331;28;19909;-76
2022/11/27 04:40:31;;;;;;;;;;;6.30;99.90;;;;;;5046441;28;19909;-78
2022/11/27 04:42:57;;;;;;;;;;;6.30;99.90;;;;;;5053434;28;19909;-78
2022/11/27 04:45:22;;;;;;;;;;;6.30;99.90;;;;;;5050323;28;19929;-76
2022/11/27 04:47:48;;;;;;;;;;;6.30;99.90;;;;;;5035934;28;19951;-83
2022/11/27 04:50:13;;;;;;;;;;;6.30;99.90;;;;;;5051107;28;19932;-76
2022/11/27 04:52:39;;;;;;;;;;;6.30;99.90;;;;;;5048990;28;19924;-76
2022/11/27 04:55:05;;;;;;;;;;;6.30;99.90;;;;;;5041520;28;19956;-76
2022/11/27 04:57:30;;;;;;;;;;;6.20;99.90;;;;;;5042870;28;19914;-77
2022/11/27 04:59:56;;;;;;;;;;;6.20;99.90;;;;;;5054757;28;20220;-75
2022/11/27 05:02:21;;;;;;;;;;;6.30;99.90;;;;;;5050571;28;19912;-80
2022/11/27 05:04:47;;;;;;;;;;;6.20;99.90;;;;;;5051947;28;19928;-76
2022/11/27 05:07:12;;;;;;;;;;;6.20;99.90;;;;;;5042935;28;20078;-76
2022/11/27 05:09:38;;;;;;;;;;;6.20;99.90;;;;;;5043973;28;19920;-79
2022/11/27 05:12:05;;;;;;;;;;;6.20;99.90;;;;;;5040717;28;20312;-75
2022/11/27 05:14:30;;;;;;;;;;;6.20;99.90;;;;;;5041907;28;20322;-78
2022/11/27 05:16:57;;;;;;;;;;;6.20;99.90;;;;;;5050868;28;19908;-76
2022/11/27 05:19:24;;;;;;;;;;;6.20;99.90;;;;;;5051363;28;19915;-79
2022/11/27 05:21:50;;;;;;;;;;;6.20;99.90;;;;;;5050857;28;19912;-80
2022/11/27 05:24:16;;;;;;;;;;;6.20;99.90;;;;;;5054010;28;19956;-77
2022/11/27 05:26:42;;;;;;;;;;;6.20;99.90;;;;;;5062579;28;19913;-82
2022/11/27 05:29:08;;;;;;;;;;;6.20;99.90;;;;;;5043159;28;19905;-81
2022/11/27 05:31:34;;;;;;;;;;;6.20;99.90;;;;;;5054412;28;19909;-82
2022/11/27 05:34:00;;;;;;;;;;;6.20;99.90;;;;;;5054613;28;20301;-83
2022/11/27 05:36:26;;;;;;;;;;;6.10;99.90;;;;;;5054445;28;19913;-75
2022/11/27 05:38:51;;;;;;;;;;;6.10;99.90;;;;;;5046829;28;19913;-78
2022/11/27 05:41:17;;;;;;;;;;;6.10;99.90;;;;;;5049715;28;19905;-83
2022/11/27 05:43:42;;;;;;;;;;;6.10;99.90;;;;;;5029821;28;20219;-75
2022/11/27 05:46:09;;;;;;;;;;;6.10;99.90;;;;;;5047090;28;19913;-82
2022/11/27 05:48:35;;;;;;;;;;;6.10;99.90;;;;;;5046660;28;19963;-81
2022/11/27 05:51:01;;;;;;;;;;;6.10;99.90;;;;;;5055223;28;20307;-76
2022/11/27 05:53:27;;;;;;;;;;;6.00;99.90;;;;;;5050435;28;20323;-82
2022/11/27 05:55:52;;;;;;;;;;;6.00;99.90;;;;;;5041701;28;19950;-82
2022/11/27 05:58:18;;;;;;;;;;;6.00;99.90;;;;;;5040969;28;19991;-81
2022/11/27 06:00:44;;;;;;;;;;;5.90;99.90;;;;;;5052643;28;20215;-83
2022/11/27 06:03:09;;;;;;;;;;;5.90;99.90;;;;;;5049105;28;20003;-79
2022/11/27 06:05:39;;;;;;;;;;;5.90;99.90;;;;;;5053371;28;20283;-82
2022/11/27 06:08:04;;;;;;;;;;;5.90;99.90;;;;;;5052440;28;19995;-88
2022/11/27 06:10:30;;;;;;;;;;;5.90;99.90;;;;;;5039308;28;20354;-86
2022/11/27 06:12:55;;;;;;;;;;;5.90;99.90;;;;;;5053493;28;20258;-79
2022/11/27 06:15:21;;;;;;;;;;;5.90;99.90;;;;;;5054344;28;19995;-80
2022/11/27 06:17:50;;;;;;;;;;;5.90;99.90;;;;;;5046481;28;19908;-80
2022/11/27 06:20:15;;;;;;;;;;;5.90;99.90;;;;;;5054225;28;20262;-79
2022/11/27 06:22:41;;;;;;;;;;;5.90;99.90;;;;;;5022713;28;19909;-83
2022/11/27 06:25:07;;;;;;;;;;;5.90;99.90;;;;;;5047067;28;19920;-74
2022/11/27 06:27:33;;;;;;;;;;;5.90;99.90;;;;;;5052489;28;19909;-82
2022/11/27 06:29:58;;;;;;;;;;;5.90;99.90;;;;;;5044893;28;19913;-81
2022/11/27 06:32:24;;;;;;;;;;;5.90;99.90;;;;;;5052139;28;19920;-77
2022/11/27 06:34:49;;;;;;;;;;;5.90;99.90;;;;;;5039890;28;19909;-77
2022/11/27 06:37:15;;;;;;;;;;;5.90;99.90;;;;;;5039877;28;19920;-81
2022/11/27 06:39:40;;;;;;;;;;;5.90;99.90;;;;;;5054010;28;19920;-76
2022/11/27 06:42:06;;;;;;;;;;;5.90;99.90;;;;;;5055161;28;19908;-76
2022/11/27 06:44:31;;;;;;;;;;;5.90;99.90;;;;;;5046708;28;19999;-78
2022/11/27 06:46:57;;;;;;;;;;;5.90;99.90;;;;;;5042663;28;19905;-81
2022/11/27 06:49:22;;;;;;;;;;;5.90;99.90;;;;;;5056047;28;19915;-88
2022/11/27 06:51:49;;;;;;;;;;;5.90;99.90;;;;;;5057145;28;19905;-73
2022/11/27 06:54:15;;;;;;;;;;;5.90;99.90;;;;;;5057381;28;19934;-87
2022/11/27 06:56:40;;;;;;;;;;;5.90;99.90;;;;;;5045020;28;19905;-85
2022/11/27 06:59:06;;;;;;;;;;;5.90;99.90;;;;;;5056584;28;19920;-75
2022/11/27 07:01:33;;;;;;;;;;;5.90;99.90;;;;;;5040882;28;20260;-79
2022/11/27 07:03:58;;;;;;;;;;;5.90;99.90;;;;;;5049696;28;19917;-84
2022/11/27 07:06:24;;;;;;;;;;;5.90;99.90;;;;;;5047795;28;21232;-81
2022/11/27 07:08:50;;;;;;;;;;;5.90;99.90;;;;;;5043433;28;19909;-77
2022/11/27 07:11:18;;;;;;;;;;;5.90;99.90;;;;;;5047975;28;19943;-75
2022/11/27 07:13:44;;;;;;;;;;;5.90;99.90;;;;;;5046737;28;19913;-81
2022/11/27 07:16:11;;;;;;;;;;;6.00;99.90;;;;;;5056342;28;20254;-83
2022/11/27 07:18:38;;;;;;;;;;;6.00;99.90;;;;;;5055867;28;19912;-89
2022/11/27 07:21:04;;;;;;;;;;;6.00;99.90;;;;;;5053466;28;19931;-74
2022/11/27 07:23:30;;;;;;;;;;;5.90;99.90;;;;;;5044544;28;20238;-75
2022/11/27 07:25:55;;;;;;;;;;;5.90;99.90;;;;;;5056479;28;19974;-77
2022/11/27 07:28:21;;;;;;;;;;;5.90;99.90;;;;;;5050189;28;19984;-76
2022/11/27 07:30:56;;;;;;;;;;;5.90;99.90;;;;;;5056627;28;19908;-88
2022/11/27 07:33:22;;;;;;;;;;;5.90;99.90;;;;;;5053305;28;20262;-86
2022/11/27 07:35:47;;;;;;;;;;;5.90;99.90;;;;;;5055811;28;19912;-75
2022/11/27 07:38:13;;;;;;;;;;;5.90;99.90;;;;;;5052072;28;19913;-89
2022/11/27 07:40:38;;;;;;;;;;;5.90;99.90;;;;;;5053886;28;19912;-82
2022/11/27 07:43:04;;;;;;;;;;;6.00;99.90;;;;;;5053991;28;19913;-85
2022/11/27 07:45:29;;;;;;;;;;;5.90;99.90;;;;;;5062985;28;20223;-86
2022/11/27 07:47:55;;;;;;;;;;;5.90;99.90;;;;;;5053332;28;20188;-80
2022/11/27 07:50:21;;;;;;;;;;;6.00;99.90;;;;;;5048286;28;20315;-78
2022/11/27 07:52:46;;;;;;;;;;;6.00;99.90;;;;;;5055047;28;19909;-77
2022/11/27 07:55:12;;;;;;;;;;;6.00;99.90;;;;;;5055858;28;19917;-75
2022/11/27 07:57:38;;;;;;;;;;;6.00;99.90;;;;;;5053495;28;19920;-81
2022/11/27 08:00:04;;;;;;;;;;;6.00;99.90;;;;;;5053007;28;19923;-75
2022/11/27 08:02:29;;;;;;;;;;;6.00;99.90;;;;;;5053188;28;19908;-82
2022/11/27 08:04:55;;;;;;;;;;;6.00;99.90;;;;;;5052078;28;19920;-77
2022/11/27 08:07:25;;;;;;;;;;;6.00;99.90;;;;;;5049955;28;19909;-80
2022/11/27 08:09:50;;;;;;;;;;;6.00;99.90;;;;;;5048875;28;19924;-82
2022/11/27 08:12:16;;;;;;;;;;;6.00;99.90;;;;;;5049916;28;19917;-75
2022/11/27 08:14:42;;;;;;;;;;;6.00;99.90;;;;;;5055970;28;19936;-76
2022/11/27 08:17:08;;;;;;;;;;;6.10;99.90;;;;;;5055609;28;19916;-83
2022/11/27 08:19:33;;;;;;;;;;;6.10;99.90;;;;;;5048397;28;19905;-81
2022/11/27 08:21:59;;;;;;;;;;;6.00;99.90;;;;;;5055825;28;19966;-82
2022/11/27 08:24:25;;;;;;;;;;;6.00;99.90;;;;;;5046272;28;19919;-74
2022/11/27 08:26:51;;;;;;;;;;;6.10;99.90;;;;;;5048481;28;20275;-73
2022/11/27 08:29:16;;;;;;;;;;;6.10;99.90;;;;;;5052585;28;19908;-83
2022/11/27 08:31:42;;;;;;;;;;;6.10;99.90;;;;;;5052702;28;19909;-80
2022/11/27 08:34:07;;;;;;;;;;;6.10;99.90;;;;;;5055564;28;20207;-74
2022/11/27 08:36:33;;;;;;;;;;;6.10;99.90;;;;;;5046419;28;19908;-83
2022/11/27 08:38:58;;;;;;;;;;;6.10;99.90;;;;;;5055468;28;20197;-83
2022/11/27 08:41:24;;;;;;;;;;;6.10;99.90;;;;;;5041307;28;20319;-82
2022/11/27 08:43:50;;;;;;;;;;;6.20;99.90;;;;;;5054258;28;20353;-76
2022/11/27 08:46:15;;;;;;;;;;;6.20;99.90;;;;;;5048043;28;20864;-78
2022/11/27 08:48:41;;;;;;;;;;;6.20;99.90;;;;;;5052117;28;19926;-76
2022/11/27 08:51:07;;;;;;;;;;;6.20;99.90;;;;;;5049809;28;19909;-83
2022/11/27 08:53:34;;;;;;;;;;;6.20;99.90;;;;;;5051761;28;20401;-77
2022/11/27 08:56:04;;;;;;;;;;;6.20;99.90;;;;;;5046832;28;20340;-83
2022/11/27 08:58:30;;;;;;;;;;;6.20;99.90;;;;;;5051425;28;19909;-74
2022/11/27 09:00:56;;;;;;;;;;;6.20;99.90;;;;;;5040168;28;20223;-77
2022/11/27 09:03:21;;;;;;;;;;;6.20;99.90;;;;;;5053685;28;19905;-85
2022/11/27 09:05:47;;;;;;;;;;;6.20;99.90;;;;;;5051646;28;19913;-77
2022/11/27 09:08:18;;;;;;;;;;;6.20;99.90;;;;;;5054067;28;20429;-79
2022/11/27 09:10:44;;;;;;;;;;;6.20;99.90;;;;;;5051440;28;20296;-81
2022/11/27 09:13:10;;;;;;;;;;;6.30;99.90;;;;;;5046343;28;19911;-74
2022/11/27 09:15:35;;;;;;;;;;;6.20;99.90;;;;;;5049754;28;19917;-76
2022/11/27 09:18:01;;;;;;;;;;;6.30;99.90;;;;;;5045799;28;19916;-80
2022/11/27 09:20:27;;;;;;;;;;;6.30;99.90;;;;;;5048964;28;20350;-80
2022/11/27 09:22:52;;;;;;;;;;;6.30;99.90;;;;;;5042429;28;19916;-88
2022/11/27 09:25:18;;;;;;;;;;;6.40;99.90;;;;;;5054294;28;20262;-76
2022/11/27 09:27:43;;;;;;;;;;;6.40;99.90;;;;;;5050469;28;20050;-75
2022/11/27 09:30:09;;;;;;;;;;;6.40;99.90;;;;;;5049385;28;20322;-87
2022/11/27 09:32:35;;;;;;;;;;;6.40;99.90;;;;;;5053704;28;20223;-79
2022/11/27 09:35:00;;;;;;;;;;;6.40;99.90;;;;;;5054933;28;19915;-75
2022/11/27 09:37:26;;;;;;;;;;;6.40;99.90;;;;;;5048336;28;19913;-75
2022/11/27 09:39:51;;;;;;;;;;;6.40;99.90;;;;;;5047979;28;19912;-84
2022/11/27 09:42:30;;;;;;;;;;;6.40;99.90;;;;;;5050936;28;19955;-79
2022/11/27 09:44:57;;;;;;;;;;;6.50;99.90;;;;;;5048815;28;19912;-76
2022/11/27 09:47:23;;;;;;;;;;;6.40;99.90;;;;;;5049900;28;19909;-75
2022/11/27 09:49:54;;;;;;;;;;;6.50;99.90;;;;;;5054176;28;19909;-76
2022/11/27 09:52:27;;;;;;;;;;;6.50;99.90;;;;;;5060753;28;19913;-74
2022/11/27 09:54:59;;;;;;;;;;;6.50;99.90;;;;;;5045214;28;19916;-75
2022/11/27 09:57:28;;;;;;;;;;;6.50;99.90;;;;;;5050203;28;19908;-80
2022/11/27 09:59:54;;;;;;;;;;;6.50;99.90;;;;;;5054410;28;20405;-74
2022/11/27 10:02:27;;;;;;;;;;;6.50;99.90;;;;;;5049582;28;20370;-74
2022/11/27 10:04:53;;;;;;;;;;;6.50;99.90;;;;;;5053820;28;19911;-76
2022/11/27 10:07:26;;;;;;;;;;;6.50;99.90;;;;;;5051679;28;19996;-74
2022/11/27 10:10:10;;;;;;;;;;;6.50;99.90;;;;;;5047052;28;19908;-74
2022/11/27 10:12:58;;;;;;;;;;;6.60;99.90;;;;;;5049827;28;20296;-74
2022/11/27 10:15:39;;;;;;;;;;;6.60;99.90;;;;;;5057309;28;19915;-75
2022/11/27 10:18:11;;;;;;;;;;;6.60;99.90;;;;;;5058459;28;19966;-78
2022/11/27 10:20:43;;;;;;;;;;;6.70;99.90;;;;;;5041371;28;19913;-76
2022/11/27 10:23:14;;;;;;;;;;;6.70;99.90;;;;;;5045845;28;20017;-77
2022/11/27 10:25:44;;;;;;;;;;;6.60;99.90;;;;;;5052252;28;19928;-77
2022/11/27 10:28:09;;;;;;;;;;;6.70;99.90;;;;;;5046377;28;19908;-79
2022/11/27 10:30:37;;;;;;;;;;;6.70;99.90;;;;;;5046952;28;19912;-81
2022/11/27 10:33:09;;;;;;;;;;;6.70;99.90;;;;;;5050913;28;19916;-77
2022/11/27 10:35:35;;;;;;;;;;;6.70;99.90;;;;;;5053569;28;19924;-79
2022/11/27 10:38:09;;;;;;;;;;;6.70;99.90;;;;;;5054952;28;19912;-87
2022/11/27 10:40:53;;;;;;;;;;;6.70;99.90;;;;;;5051419;28;20012;-76
2022/11/27 10:43:23;;;;;;;;;;;6.80;99.90;;;;;;5048829;28;19917;-81
2022/11/27 10:45:51;;;;;;;;;;;6.80;99.90;;;;;;5054688;28;19913;-85
2022/11/27 10:48:17;;;;;;;;;;;6.80;99.90;;;;;;5046483;28;19995;-75
2022/11/27 10:50:42;;;;;;;;;;;6.80;99.90;;;;;;5050373;28;20012;-77
2022/11/27 10:53:28;;;;;;;;;;;6.90;99.90;;;;;;5057423;28;19962;-75
2022/11/27 10:56:03;;;;;;;;;;;6.90;99.90;;;;;;5053591;28;19927;-83
2022/11/27 10:58:47;;;;;;;;;;;6.90;99.90;;;;;;5052784;28;19913;-82
2022/11/27 11:01:15;;;;;;;;;;;6.90;99.90;;;;;;5054627;28;19995;-76
2022/11/27 11:03:40;;;;;;;;;;;6.90;99.90;;;;;;5055621;28;20330;-80
2022/11/27 11:06:12;;;;;;;;;;;7.00;99.90;;;;;;5051780;28;19916;-79
2022/11/27 11:08:38;;;;;;;;;;;7.00;99.90;;;;;;5055527;28;19908;-75
2022/11/27 11:11:05;;;;;;;;;;;7.00;99.90;;;;;;5054510;28;19909;-78
2022/11/27 11:13:51;;;;;;;;;;;7.00;99.90;;;;;;5056093;28;20246;-76
2022/11/27 11:16:20;;;;;;;;;;;7.00;99.90;;;;;;5054476;28;19909;-79
2022/11/27 11:18:45;;;;;;;;;;;7.00;99.90;;;;;;5056008;28;19915;-78
2022/11/27 11:21:31;;;;;;;;;;;7.00;99.90;;;;;;5053307;28;19905;-81
2022/11/27 11:24:01;;;;;;;;;;;7.00;99.90;;;;;;5039309;28;19916;-83
2022/11/27 11:26:28;;;;;;;;;;;7.10;99.90;;;;;;5048251;28;20303;-76
2022/11/27 11:28:55;;;;;;;;;;;7.10;99.90;;;;;;5050282;28;20282;-80
2022/11/27 11:31:26;;;;;;;;;;;7.10;99.90;;;;;;5047710;28;20231;-76
2022/11/27 11:33:56;;;;;;;;;;;7.20;99.90;;;;;;5054452;28;19913;-82
2022/11/27 11:36:21;;;;;;;;;;;7.20;99.90;;;;;;5049846;28;19905;-78
2022/11/27 11:38:48;;;;;;;;;;;7.30;99.90;;;;;;5054203;28;19915;-77
2022/11/27 11:41:16;;;;;;;;;;;7.30;99.90;;;;;;5056462;28;19916;-83
2022/11/27 11:43:51;;;;;;;;;;;7.40;99.90;;;;;;5051428;28;20323;-82
2022/11/27 11:46:19;;;;;;;;;;;7.40;99.90;;;;;;5043012;28;19913;-76
2022/11/27 11:48:55;;;;;;;;;;;7.40;99.90;;;;;;5041630;28;19905;-76
2022/11/27 11:51:26;;;;;;;;;;;7.40;99.90;;;;;;5052788;28;19909;-83
2022/11/27 11:54:17;;;;;;;;;;;7.40;99.90;;;;;;5053836;28;19943;-77
2022/11/27 11:56:48;;;;;;;;;;;7.40;99.90;;;;;;5042972;28;19913;-76
2022/11/27 11:59:19;;;;;;;;;;;7.50;99.90;;;;;;5050390;28;19923;-83
2022/11/27 12:01:45;;;;;;;;;;;7.50;99.90;;;;;;5054595;28;20215;-78
2022/11/27 12:04:22;;;;;;;;;;;7.50;99.90;;;;;;5054009;28;19909;-85
2022/11/27 12:06:59;;;;;;;;;;;7.50;99.90;;;;;;5051047;28;19914;-78
2022/11/27 12:09:44;;;;;;;;;;;7.50;99.90;;;;;;5054631;28;19969;-79
2022/11/27 12:12:28;;;;;;;;;;;7.40;99.90;;;;;;5041244;28;19995;-78
2022/11/27 12:14:56;;;;;;;;;;;7.40;99.90;;;;;;5052565;28;20027;-80
2022/11/27 12:17:45;;;;;;;;;;;7.50;99.90;;;;;;5050825;28;19909;-80
2022/11/27 12:20:21;;;;;;;;;;;7.50;99.90;;;;;;5019744;28;19911;-77
2022/11/27 12:22:46;;;;;;;;;;;7.50;99.90;;;;;;5052839;28;19905;-77
2022/11/27 12:25:19;;;;;;;;;;;7.60;99.90;;;;;;5050366;28;20221;-75
2022/11/27 12:27:48;;;;;;;;;;;7.50;99.90;;;;;;5052737;28;20300;-80
2022/11/27 12:30:18;;;;;;;;;;;7.50;99.90;;;;;;5048539;28;19909;-78
2022/11/27 12:32:46;;;;;;;;;;;7.50;99.90;;;;;;5052035;28;19912;-81
2022/11/27 12:35:31;;;;;;;;;;;7.50;99.90;;;;;;5050029;28;19909;-78
2022/11/27 12:38:05;;;;;;;;;;;7.50;99.90;;;;;;5052269;28;19908;-79
2022/11/27 12:40:41;;;;;;;;;;;7.50;99.90;;;;;;5052499;28;19955;-80
2022/11/27 12:43:13;;;;;;;;;;;7.50;99.90;;;;;;5043303;28;19909;-80
2022/11/27 12:45:49;;;;;;;;;;;7.50;99.90;;;;;;5040876;28;20322;-79
2022/11/27 12:48:28;;;;;;;;;;;7.50;99.90;;;;;;5054599;28;20311;-81
2022/11/27 12:50:56;;;;;;;;;;;7.60;99.90;;;;;;5050891;28;19912;-78
2022/11/27 12:53:28;;;;;;;;;;;7.50;99.90;;;;;;5051560;28;19920;-80
2022/11/27 12:55:56;;;;;;;;;;;7.60;99.90;;;;;;5036245;28;19913;-81
2022/11/27 12:58:26;;;;;;;;;;;7.60;99.90;;;;;;5042906;28;19920;-80
2022/11/27 13:00:54;;;;;;;;;;;7.60;99.90;;;;;;5050523;28;19924;-74
2022/11/27 13:03:19;;;;;;;;;;;7.60;99.90;;;;;;5052068;28;19916;-81
2022/11/27 13:05:48;;;;;;;;;;;7.60;99.90;;;;;;5038804;28;19917;-78
2022/11/27 13:08:16;;;;;;;;;;;7.60;99.90;;;;;;5053033;28;19909;-81
2022/11/27 13:10:50;;;;;;;;;;;7.60;99.90;;;;;;5051930;28;20250;-82
2022/11/27 13:13:20;;;;;;;;;;;7.60;99.90;;;;;;5043811;28;20311;-76
2022/11/27 13:15:53;;;;;;;;;;;7.60;99.90;;;;;;5048594;28;19909;-75
2022/11/27 13:18:35;;;;;;;;;;;7.60;99.90;;;;;;5045851;28;19916;-81
2022/11/27 13:21:02;;;;;;;;;;;7.60;99.90;;;;;;5051711;28;20250;-82
2022/11/27 13:23:31;;;;;;;;;;;7.60;99.90;;;;;;5037586;28;20035;-81
2022/11/27 13:25:58;;;;;;;;;;;7.60;99.90;;;;;;5049567;28;19967;-82
2022/11/27 13:28:43;;;;;;;;;;;7.60;99.90;;;;;;5052866;28;19913;-82
2022/11/27 13:31:23;;;;;;;;;;;7.60;99.90;;;;;;5050848;28;19916;-83
2022/11/27 13:33:50;;;;;;;;;;;7.60;99.90;;;;;;5048292;28;19913;-84
2022/11/27 13:36:23;;;;;;;;;;;7.60;99.90;;;;;;5049884;28;19917;-80
2022/11/27 13:38:57;;;;;;;;;;;7.50;99.90;;;;;;5053767;28;19908;-80
2022/11/27 13:41:30;;;;;;;;;;;7.50;99.90;;;;;;5048144;28;19954;-74
2022/11/27 13:43:56;;;;;;;;;;;7.60;99.90;;;;;;5052837;28;19911;-76
2022/11/27 13:46:23;;;;;;;;;;;7.60;99.90;;;;;;5052644;28;20285;-80
2022/11/27 13:49:01;;;;;;;;;;;7.60;99.90;;;;;;5049700;28;19917;-75
2022/11/27 13:51:28;;;;;;;;;;;7.60;99.90;;;;;;5038742;28;19905;-74
2022/11/27 13:54:05;;;;;;;;;;;7.60;99.90;;;;;;5056177;28;19916;-73
2022/11/27 13:56:31;;;;;;;;;;;7.60;99.90;;;;;;5056634;28;20435;-74
2022/11/27 13:58:57;;;;;;;;;;;7.60;99.90;;;;;;5051643;28;19987;-76
2022/11/27 14:01:23;;;;;;;;;;;7.60;99.90;;;;;;5049319;28;19951;-74
2022/11/27 14:03:49;;;;;;;;;;;7.60;99.90;;;;;;5056315;28;19940;-74
2022/11/27 14:06:25;;;;;;;;;;;7.60;99.90;;;;;;5055906;28;20477;-82
2022/11/27 14:08:51;;;;;;;;;;;7.70;99.90;;;;;;5054020;28;19909;-75
2022/11/27 14:11:27;;;;;;;;;;;7.70;99.90;;;;;;5052828;28;20351;-76
2022/11/27 14:13:52;;;;;;;;;;;7.70;99.90;;;;;;5056573;28;19908;-81
2022/11/27 14:16:28;;;;;;;;;;;7.60;99.90;;;;;;5045369;28;20272;-74
2022/11/27 14:18:59;;;;;;;;;;;7.60;99.90;;;;;;5055580;28;19974;-73
2022/11/27 14:21:37;;;;;;;;;;;7.60;99.90;;;;;;5050229;28;20078;-87
2022/11/27 14:24:05;;;;;;;;;;;7.60;99.90;;;;;;5052943;28;19912;-75
2022/11/27 14:26:31;;;;;;;;;;;7.60;99.90;;;;;;5041763;28;19913;-77
2022/11/27 14:28:58;;;;;;;;;;;7.60;99.90;;;;;;5052063;28;19963;-74
2022/11/27 14:31:31;;;;;;;;;;;7.60;99.90;;;;;;5045545;28;19916;-79
2022/11/27 14:33:59;;;;;;;;;;;7.60;99.90;;;;;;5054146;28;20299;-75
2022/11/27 14:36:30;;;;;;;;;;;7.50;99.90;;;;;;5049614;28;19909;-81
2022/11/27 14:38:56;;;;;;;;;;;7.60;99.90;;;;;;5046856;28;19913;-76